Friday, October 19, 2018, 7:11 AM EDT
Back to Local

KBLM, Belmar-farmingdale

Location: Farmingdale, NJ, United States Lat: 40.183
Local Time: 7:11 AM EDT (11:11 GMT) Lon: -74.133
Time Zone: US/Eastern Elev: 157 ft

Show me the last for .
Show Decoded

2018-10-19 06:56 METAR KBLM 191056Z AUTO 22007KT 10SM CLR 02/00 A3033 RMK AO2 SLP278 T00220000
                 FZRANO =
2018-10-19 05:56 METAR KBLM 190956Z AUTO 21006KT 10SM CLR 03/00 A3034 RMK AO2 SLP279 T00280000 =
2018-10-19 04:56 METAR KBLM 190856Z AUTO 24003KT 10SM CLR 02/00 A3034 RMK AO2 SLP279 T00170000
                 58005 FZRANO =
2018-10-19 03:56 METAR KBLM 190756Z AUTO 23006KT 10SM CLR 02/00 A3035 RMK AO2 SLP282 T00220000
                 FZRANO =
2018-10-19 02:56 METAR KBLM 190656Z AUTO 22005KT 10SM CLR 03/00 A3035 RMK AO2 SLP283 T00330000 =
2018-10-19 01:56 METAR KBLM 190556Z AUTO 22004KT 10SM CLR 03/M01 A3035 RMK AO2 SLP284 T00331006
                 10067 20017 56008 =
2018-10-19 00:56 METAR KBLM 190456Z AUTO 00000KT 10SM CLR 03/01 A3036 RMK AO2 SLP285 T00280006
                 401110017 =
2018-10-18 23:56 METAR KBLM 190356Z AUTO 27003KT 10SM CLR 03/01 A3037 RMK AO2 SLP289 T00280006 =
2018-10-18 22:56 METAR KBLM 190256Z AUTO 00000KT 10SM CLR 04/00 A3038 RMK AO2 SLP291 T00390000
                 53003 =
2018-10-18 21:56 METAR KBLM 190156Z AUTO 23005KT 10SM CLR 05/M01 A3038 RMK AO2 SLP291 T00501006 =
2018-10-18 20:56 METAR KBLM 190056Z AUTO 25005KT 10SM CLR 05/M01 A3036 RMK AO2 SLP287 T00501006 =
2018-10-18 19:56 METAR KBLM 182356Z AUTO 20005KT 10SM CLR 07/00 A3037 RMK AO2 SLP288 T00670000
                 10111 20056 51014 =
2018-10-18 18:56 METAR KBLM 182256Z AUTO 26006KT 10SM CLR 07/M01 A3036 RMK AO2 SLP285 T00721011 =
2018-10-18 17:56 METAR KBLM 182156Z AUTO 25005KT 10SM CLR 09/M03 A3034 RMK AO2 SLP280 T00891028 =
2018-10-18 16:56 METAR KBLM 182056Z AUTO 29012KT 10SM CLR 11/M04 A3033 RMK AO2 SLP275 T01061039
                 56006 =
2018-10-18 14:56 METAR KBLM 181856Z AUTO 27011G25KT 10SM CLR 11/M05 A3034 RMK AO2 SLP278
                 T01061050 =
2018-10-18 13:56 METAR KBLM 181756Z AUTO 29014G19KT 10SM CLR 11/M04 A3034 RMK AO2 SLP281
                 T01061044 10106 20044 58009 =
2018-10-18 12:56 METAR KBLM 181656Z AUTO 28008G20KT 10SM CLR 10/M05 A3036 RMK AO2 SLP288
                 T01001050 =
2018-10-18 11:56 METAR KBLM 181556Z AUTO 28015G22KT 10SM FEW055 09/M06 A3038 RMK AO2 SLP292
                 T00891056 =
2018-10-18 10:56 METAR KBLM 181456Z AUTO 29015G19KT 10SM CLR 08/M04 A3037 RMK AO2 SLP291
                 T00831044 51009 =
2018-10-18 09:56 METAR KBLM 181356Z AUTO 32017G23KT 10SM SCT050 07/M04 A3037 RMK AO2 SLP289
                 T00721044 =
2018-10-18 08:56 METAR KBLM 181256Z AUTO 31012KT 10SM SCT060 07/M02 A3036 RMK AO2 SLP286
                 T00671022 =
2018-10-18 07:56 METAR KBLM 181156Z AUTO 29007KT 10SM OVC050 04/M01 A3035 RMK AO2 SLP281
                 T00441011 10072 20033 53033 =

Support USWX by starting your Amazon purchase here.